UAE561 OMDB-HECA
Flight info
| Callsign | UAE561 |
|---|---|
| Flight time | 3h 15m |
| Altitude | 36000 |
| Route | SENPA N571 ALPOB L768 VATIM L550 ORSAL/N0484F380 L550 NOVPA N697 MENLI L677 CVO |
| Aircraft | A388/J-SADE2E3FGHIJ3J4J5M1RWXY/LB1D1 |
Departure
| Time | 2026-05-07 16:13 |
|---|---|
| Airport | Dubai International Airport (OMDB) |
Arrival
| Time | 2026-05-07 19:28 |
|---|---|
| Airport | Cairo International Airport (HECA) |
| Time | Latitude | Longitude | Altitude | Speed | Heading |
|---|---|---|---|---|---|
| 2026-05-07 15:49 | 25.24475 | 55.37145 | 31 ft | 0 kts | 211° |
| 2026-05-07 16:03 | 25.24481 | 55.37148 | 32 ft | 4 kts | 211° |
| 2026-05-07 16:03 | 25.24504 | 55.37164 | 30 ft | 4 kts | 211° |
| 2026-05-07 16:03 | 25.24523 | 55.37177 | 32 ft | 4 kts | 210° |
| 2026-05-07 16:04 | 25.24544 | 55.37185 | 32 ft | 4 kts | 182° |
| 2026-05-07 16:04 | 25.24562 | 55.37180 | 32 ft | 4 kts | 143° |
| 2026-05-07 16:04 | 25.24576 | 55.37162 | 32 ft | 4 kts | 122° |
| 2026-05-07 16:04 | 25.24590 | 55.37136 | 24 ft | 4 kts | 122° |
| 2026-05-07 16:05 | 25.24595 | 55.37129 | 26 ft | 1 kts | 122° |
| 2026-05-07 16:08 | 25.24590 | 55.37138 | 26 ft | 4 kts | 122° |
| 2026-05-07 16:08 | 25.24565 | 55.37182 | 30 ft | 10 kts | 121° |
| 2026-05-07 16:08 | 25.24519 | 55.37265 | 31 ft | 15 kts | 121° |
| 2026-05-07 16:09 | 25.24459 | 55.37380 | 28 ft | 19 kts | 111° |
| 2026-05-07 16:09 | 25.24429 | 55.37532 | 30 ft | 22 kts | 98° |
| 2026-05-07 16:09 | 25.24385 | 55.37686 | 26 ft | 21 kts | 118° |
| 2026-05-07 16:09 | 25.24303 | 55.37835 | 26 ft | 24 kts | 122° |
| 2026-05-07 16:10 | 25.24226 | 55.37970 | 27 ft | 15 kts | 113° |
| 2026-05-07 16:10 | 25.24238 | 55.38070 | 28 ft | 13 kts | 45° |
| 2026-05-07 16:10 | 25.24311 | 55.38126 | 31 ft | 13 kts | 32° |
| 2026-05-07 16:10 | 25.24393 | 55.38182 | 30 ft | 15 kts | 31° |
| 2026-05-07 16:11 | 25.24494 | 55.38249 | 27 ft | 18 kts | 31° |
| 2026-05-07 16:11 | 25.24573 | 55.38302 | 27 ft | 8 kts | 31° |
| 2026-05-07 16:11 | 25.24629 | 55.38319 | 27 ft | 8 kts | 340° |
| 2026-05-07 16:11 | 25.24652 | 55.38303 | 27 ft | 0 kts | 302° |
| 2026-05-07 16:12 | 25.24659 | 55.38290 | 27 ft | 19 kts | 302° |
| 2026-05-07 16:12 | 25.24879 | 55.37893 | 31 ft | 102 kts | 302° |
| 2026-05-07 16:12 | 25.25365 | 55.37014 | 31 ft | 160 kts | 301° |
| 2026-05-07 16:12 | 25.25981 | 55.35887 | 358 ft | 174 kts | 301° |
| 2026-05-07 16:13 | 25.26587 | 55.34726 | 842 ft | 176 kts | 301° |
| 2026-05-07 16:13 | 25.27236 | 55.33562 | 1336 ft | 178 kts | 300° |
| 2026-05-07 16:13 | 25.27889 | 55.32426 | 1936 ft | 174 kts | 300° |
| 2026-05-07 16:13 | 25.28546 | 55.31268 | 2267 ft | 182 kts | 300° |
| 2026-05-07 16:14 | 25.29214 | 55.30064 | 2600 ft | 185 kts | 296° |
| 2026-05-07 16:14 | 25.29632 | 55.28741 | 2962 ft | 185 kts | 278° |
| 2026-05-07 16:14 | 25.29733 | 55.27303 | 3222 ft | 194 kts | 273° |
| 2026-05-07 16:14 | 25.29836 | 55.25781 | 3412 ft | 202 kts | 274° |
| 2026-05-07 16:15 | 25.29959 | 55.24222 | 3696 ft | 204 kts | 275° |
| 2026-05-07 16:15 | 25.30088 | 55.22640 | 3881 ft | 212 kts | 275° |
| 2026-05-07 16:15 | 25.30224 | 55.20980 | 3950 ft | 221 kts | 275° |
| 2026-05-07 16:15 | 25.30362 | 55.19257 | 4010 ft | 229 kts | 275° |
| 2026-05-07 16:16 | 25.30370 | 55.17462 | 4075 ft | 243 kts | 263° |
| 2026-05-07 16:16 | 25.30195 | 55.15524 | 4296 ft | 265 kts | 264° |
| 2026-05-07 16:16 | 25.30030 | 55.13441 | 4664 ft | 276 kts | 264° |
| 2026-05-07 16:16 | 25.29869 | 55.11311 | 5196 ft | 280 kts | 265° |
| 2026-05-07 16:17 | 25.29707 | 55.09159 | 5794 ft | 282 kts | 265° |
| 2026-05-07 16:17 | 25.29545 | 55.07021 | 6366 ft | 284 kts | 265° |
| 2026-05-07 16:17 | 25.29379 | 55.04838 | 6953 ft | 286 kts | 265° |
| 2026-05-07 16:17 | 25.29210 | 55.02643 | 7550 ft | 288 kts | 265° |
| 2026-05-07 16:18 | 25.29039 | 55.00430 | 8169 ft | 289 kts | 265° |
| 2026-05-07 16:18 | 25.28867 | 54.98211 | 8783 ft | 291 kts | 265° |
| 2026-05-07 16:18 | 25.28693 | 54.95980 | 9423 ft | 292 kts | 265° |
| 2026-05-07 16:18 | 25.28525 | 54.93736 | 10034 ft | 294 kts | 266° |
| 2026-05-07 16:19 | 25.28435 | 54.91434 | 10372 ft | 306 kts | 268° |
| 2026-05-07 16:19 | 25.28407 | 54.90019 | 10663 ft | 308 kts | 268° |
| 2026-05-07 16:19 | 25.28364 | 54.87642 | 11187 ft | 312 kts | 268° |
| 2026-05-07 16:19 | 25.28314 | 54.85271 | 11720 ft | 314 kts | 267° |
| 2026-05-07 16:20 | 25.28253 | 54.82847 | 12248 ft | 317 kts | 267° |
| 2026-05-07 16:20 | 25.28184 | 54.80407 | 12762 ft | 320 kts | 266° |
| 2026-05-07 16:20 | 25.28112 | 54.77940 | 13289 ft | 322 kts | 266° |
| 2026-05-07 16:20 | 25.28130 | 54.75451 | 13764 ft | 326 kts | 273° |
| 2026-05-07 16:21 | 25.28453 | 54.72962 | 14240 ft | 329 kts | 280° |
| 2026-05-07 16:21 | 25.29053 | 54.70508 | 14702 ft | 332 kts | 285° |
| 2026-05-07 16:21 | 25.29695 | 54.68045 | 15182 ft | 335 kts | 284° |
| 2026-05-07 16:21 | 25.30324 | 54.65559 | 15633 ft | 338 kts | 284° |
| 2026-05-07 16:22 | 25.30954 | 54.63050 | 16083 ft | 341 kts | 284° |
| 2026-05-07 16:22 | 25.31589 | 54.60519 | 16566 ft | 342 kts | 284° |
| 2026-05-07 16:22 | 25.32221 | 54.58007 | 16963 ft | 347 kts | 284° |
| 2026-05-07 16:22 | 25.32870 | 54.55426 | 17439 ft | 349 kts | 284° |
| 2026-05-07 16:23 | 25.33521 | 54.52841 | 17902 ft | 351 kts | 285° |
| 2026-05-07 16:23 | 25.34207 | 54.50251 | 18347 ft | 353 kts | 285° |
| 2026-05-07 16:23 | 25.34921 | 54.47643 | 18747 ft | 354 kts | 285° |
| 2026-05-07 16:23 | 25.35636 | 54.45038 | 19189 ft | 355 kts | 285° |
| 2026-05-07 16:24 | 25.36350 | 54.42421 | 19595 ft | 356 kts | 285° |
| 2026-05-07 16:24 | 25.37067 | 54.39776 | 19722 ft | 364 kts | 285° |
| 2026-05-07 16:24 | 25.37803 | 54.37047 | 19791 ft | 377 kts | 285° |
| 2026-05-07 16:24 | 25.38555 | 54.34255 | 19919 ft | 391 kts | 284° |
| 2026-05-07 16:25 | 25.39341 | 54.31328 | 20080 ft | 402 kts | 285° |
| 2026-05-07 16:25 | 25.40141 | 54.28356 | 20542 ft | 404 kts | 285° |
| 2026-05-07 16:25 | 25.40926 | 54.25373 | 21025 ft | 405 kts | 284° |
| 2026-05-07 16:25 | 25.41676 | 54.22359 | 21492 ft | 406 kts | 283° |
| 2026-05-07 16:26 | 25.42415 | 54.19339 | 21966 ft | 408 kts | 283° |
| 2026-05-07 16:26 | 25.43159 | 54.16307 | 22393 ft | 410 kts | 284° |
| 2026-05-07 16:26 | 25.43912 | 54.13255 | 22898 ft | 411 kts | 283° |
| 2026-05-07 16:26 | 25.44668 | 54.10199 | 23358 ft | 413 kts | 284° |
| 2026-05-07 16:27 | 25.45423 | 54.07116 | 23671 ft | 416 kts | 283° |
| 2026-05-07 16:27 | 25.46157 | 54.04062 | 24080 ft | 417 kts | 283° |
| 2026-05-07 16:27 | 25.46902 | 54.00954 | 24450 ft | 418 kts | 283° |
| 2026-05-07 16:27 | 25.47647 | 53.97842 | 24874 ft | 419 kts | 283° |
| 2026-05-07 16:28 | 25.48394 | 53.94728 | 25310 ft | 419 kts | 283° |
| 2026-05-07 16:28 | 25.49142 | 53.91610 | 25693 ft | 420 kts | 283° |
| 2026-05-07 16:28 | 25.49893 | 53.88478 | 26093 ft | 421 kts | 283° |
| 2026-05-07 16:28 | 25.50646 | 53.85339 | 26537 ft | 422 kts | 283° |
| 2026-05-07 16:29 | 25.51396 | 53.82204 | 26965 ft | 424 kts | 283° |
| 2026-05-07 16:29 | 25.52144 | 53.79075 | 27408 ft | 425 kts | 283° |
| 2026-05-07 16:29 | 25.52901 | 53.75908 | 27869 ft | 427 kts | 283° |
| 2026-05-07 16:29 | 25.53661 | 53.72727 | 28350 ft | 428 kts | 282° |
| 2026-05-07 16:30 | 25.54425 | 53.69536 | 28841 ft | 430 kts | 282° |
| 2026-05-07 16:30 | 25.55192 | 53.66333 | 29348 ft | 431 kts | 282° |
| 2026-05-07 16:30 | 25.55959 | 53.63126 | 29945 ft | 431 kts | 282° |
| 2026-05-07 16:30 | 25.56727 | 53.59911 | 30367 ft | 433 kts | 282° |
| 2026-05-07 16:31 | 25.57499 | 53.56674 | 30790 ft | 435 kts | 282° |
| 2026-05-07 16:31 | 25.58273 | 53.53423 | 31212 ft | 438 kts | 282° |
| 2026-05-07 16:31 | 25.59050 | 53.50156 | 31633 ft | 440 kts | 282° |
| 2026-05-07 16:31 | 25.59831 | 53.46871 | 32047 ft | 442 kts | 282° |
| 2026-05-07 16:32 | 25.60604 | 53.43618 | 32463 ft | 444 kts | 282° |
| 2026-05-07 16:32 | 25.61391 | 53.40299 | 32862 ft | 447 kts | 282° |
| 2026-05-07 16:32 | 25.62181 | 53.36960 | 33268 ft | 449 kts | 282° |
| 2026-05-07 16:32 | 25.62972 | 53.33608 | 33669 ft | 451 kts | 282° |
| 2026-05-07 16:33 | 25.63767 | 53.30233 | 34040 ft | 454 kts | 282° |
| 2026-05-07 16:33 | 25.64566 | 53.26844 | 34387 ft | 456 kts | 282° |
| 2026-05-07 16:33 | 25.65369 | 53.23443 | 34826 ft | 456 kts | 282° |
| 2026-05-07 16:33 | 25.66168 | 53.20050 | 35293 ft | 455 kts | 282° |
| 2026-05-07 16:34 | 25.66963 | 53.16659 | 35744 ft | 455 kts | 282° |
| 2026-05-07 16:34 | 25.67247 | 53.15450 | 35809 ft | 453 kts | 282° |
| 2026-05-07 16:35 | 25.68825 | 53.08712 | 35827 ft | 453 kts | 282° |
| 2026-05-07 16:35 | 25.70604 | 53.02002 | 35829 ft | 456 kts | 287° |
| 2026-05-07 16:36 | 25.73307 | 52.95611 | 35831 ft | 460 kts | 294° |
| 2026-05-07 16:36 | 25.76264 | 52.89377 | 35827 ft | 460 kts | 294° |
| 2026-05-07 16:37 | 25.79222 | 52.83094 | 35828 ft | 459 kts | 294° |
| 2026-05-07 16:37 | 25.82182 | 52.76809 | 35829 ft | 459 kts | 293° |
| 2026-05-07 16:38 | 25.85140 | 52.70527 | 35826 ft | 459 kts | 293° |
| 2026-05-07 16:38 | 25.86490 | 52.67654 | 35813 ft | 459 kts | 293° |
| 2026-05-07 16:40 | 25.89211 | 52.61868 | 35829 ft | 459 kts | 293° |
| 2026-05-07 16:40 | 25.92090 | 52.55545 | 35828 ft | 458 kts | 292° |
| 2026-05-07 16:41 | 25.94853 | 52.49214 | 35848 ft | 459 kts | 291° |
| 2026-05-07 16:41 | 25.97644 | 52.42838 | 35848 ft | 459 kts | 291° |
| 2026-05-07 16:42 | 26.00456 | 52.36472 | 35844 ft | 459 kts | 292° |
| 2026-05-07 16:42 | 26.03297 | 52.30127 | 35845 ft | 458 kts | 292° |
| 2026-05-07 16:43 | 26.06131 | 52.23787 | 35819 ft | 457 kts | 292° |
| 2026-05-07 16:43 | 26.08936 | 52.17489 | 35816 ft | 457 kts | 292° |
| 2026-05-07 16:44 | 26.11743 | 52.11154 | 35834 ft | 456 kts | 291° |
| 2026-05-07 16:44 | 26.14556 | 52.04822 | 35836 ft | 456 kts | 291° |
| 2026-05-07 16:45 | 26.17368 | 51.98486 | 35829 ft | 457 kts | 291° |
| 2026-05-07 16:45 | 26.20201 | 51.92207 | 35831 ft | 457 kts | 291° |
| 2026-05-07 16:46 | 26.23007 | 51.85857 | 35837 ft | 457 kts | 291° |
| 2026-05-07 16:46 | 26.25799 | 51.79496 | 35855 ft | 457 kts | 291° |
| 2026-05-07 16:47 | 26.28627 | 51.73152 | 35848 ft | 457 kts | 291° |
| 2026-05-07 16:47 | 26.31438 | 51.66855 | 35847 ft | 457 kts | 291° |
| 2026-05-07 16:48 | 26.34265 | 51.60514 | 35845 ft | 457 kts | 291° |
| 2026-05-07 16:48 | 26.37087 | 51.54176 | 35837 ft | 456 kts | 290° |
| 2026-05-07 16:49 | 26.39379 | 51.47640 | 35852 ft | 451 kts | 284° |
| 2026-05-07 16:49 | 26.41483 | 51.41044 | 35848 ft | 451 kts | 285° |
| 2026-05-07 16:50 | 26.43580 | 51.34499 | 35848 ft | 451 kts | 285° |
| 2026-05-07 16:50 | 26.45690 | 51.27903 | 35833 ft | 452 kts | 284° |
| 2026-05-07 16:51 | 26.47800 | 51.21300 | 35836 ft | 452 kts | 284° |
| 2026-05-07 16:51 | 26.49908 | 51.14689 | 35857 ft | 452 kts | 284° |
| 2026-05-07 16:52 | 26.52010 | 51.08073 | 35852 ft | 452 kts | 284° |
| 2026-05-07 16:52 | 26.54098 | 51.01494 | 35855 ft | 452 kts | 284° |
| 2026-05-07 16:53 | 26.56197 | 50.94871 | 35853 ft | 452 kts | 284° |
| 2026-05-07 16:53 | 26.58283 | 50.88253 | 35851 ft | 452 kts | 284° |
| 2026-05-07 16:54 | 26.60337 | 50.81617 | 35834 ft | 452 kts | 284° |
| 2026-05-07 16:54 | 26.62389 | 50.74979 | 35858 ft | 452 kts | 284° |
| 2026-05-07 16:55 | 26.64425 | 50.68389 | 35853 ft | 452 kts | 284° |
| 2026-05-07 16:55 | 26.66411 | 50.61736 | 35845 ft | 451 kts | 283° |
| 2026-05-07 16:56 | 26.68372 | 50.55074 | 35846 ft | 451 kts | 283° |
| 2026-05-07 16:56 | 26.71273 | 50.45065 | 35850 ft | 450 kts | 281° |
| 2026-05-07 16:57 | 26.72968 | 50.38329 | 35857 ft | 450 kts | 280° |
| 2026-05-07 16:57 | 26.74657 | 50.31630 | 35862 ft | 450 kts | 281° |
| 2026-05-07 16:58 | 26.76402 | 50.24897 | 35862 ft | 452 kts | 282° |
| 2026-05-07 16:58 | 26.78421 | 50.18230 | 35862 ft | 453 kts | 283° |
| 2026-05-07 16:59 | 26.80456 | 50.11550 | 35853 ft | 453 kts | 283° |
| 2026-05-07 16:59 | 26.82455 | 50.04862 | 35857 ft | 453 kts | 283° |
| 2026-05-07 17:00 | 26.84433 | 49.98203 | 35878 ft | 453 kts | 283° |
| 2026-05-07 17:00 | 26.86419 | 49.91500 | 35878 ft | 453 kts | 282° |
| 2026-05-07 17:01 | 26.88397 | 49.84801 | 35874 ft | 453 kts | 282° |
| 2026-05-07 17:01 | 26.90375 | 49.78106 | 35872 ft | 453 kts | 282° |
| 2026-05-07 17:02 | 26.92352 | 49.71410 | 35870 ft | 452 kts | 282° |
| 2026-05-07 17:02 | 26.94307 | 49.64763 | 35888 ft | 452 kts | 282° |
| 2026-05-07 17:03 | 26.96269 | 49.58081 | 35893 ft | 451 kts | 282° |
| 2026-05-07 17:03 | 26.98227 | 49.51396 | 35899 ft | 451 kts | 282° |
| 2026-05-07 17:04 | 27.00176 | 49.44727 | 35892 ft | 450 kts | 282° |
| 2026-05-07 17:04 | 27.02691 | 49.38245 | 35884 ft | 458 kts | 291° |
| 2026-05-07 17:05 | 27.05844 | 49.32027 | 35883 ft | 458 kts | 292° |
| 2026-05-07 17:05 | 27.08948 | 49.25843 | 35875 ft | 458 kts | 292° |
| 2026-05-07 17:06 | 27.12069 | 49.19621 | 35869 ft | 457 kts | 292° |
| 2026-05-07 17:06 | 27.15190 | 49.13396 | 35873 ft | 457 kts | 292° |
| 2026-05-07 17:07 | 27.18308 | 49.07170 | 35877 ft | 457 kts | 292° |
| 2026-05-07 17:07 | 27.21400 | 49.00986 | 35863 ft | 457 kts | 292° |
| 2026-05-07 17:08 | 27.24509 | 48.94752 | 35866 ft | 457 kts | 292° |
| 2026-05-07 17:08 | 27.27616 | 48.88519 | 35868 ft | 457 kts | 292° |
| 2026-05-07 17:09 | 27.30724 | 48.82278 | 35889 ft | 457 kts | 292° |
| 2026-05-07 17:09 | 27.33830 | 48.76035 | 35908 ft | 457 kts | 292° |
| 2026-05-07 17:10 | 27.36908 | 48.69828 | 35910 ft | 457 kts | 292° |
| 2026-05-07 17:10 | 27.40004 | 48.63582 | 35901 ft | 457 kts | 291° |
| 2026-05-07 17:11 | 27.43100 | 48.57328 | 35898 ft | 458 kts | 291° |
| 2026-05-07 17:11 | 27.46189 | 48.51071 | 35918 ft | 458 kts | 291° |
| 2026-05-07 17:12 | 27.49258 | 48.44847 | 35918 ft | 457 kts | 291° |
| 2026-05-07 17:12 | 27.52342 | 48.38590 | 35920 ft | 457 kts | 291° |
| 2026-05-07 17:13 | 27.55420 | 48.32328 | 35922 ft | 457 kts | 291° |
| 2026-05-07 17:13 | 27.58500 | 48.26062 | 35944 ft | 457 kts | 291° |
| 2026-05-07 17:14 | 27.61579 | 48.19797 | 35931 ft | 457 kts | 291° |
| 2026-05-07 17:14 | 27.64659 | 48.13526 | 35929 ft | 456 kts | 291° |
| 2026-05-07 17:15 | 27.67731 | 48.07265 | 35928 ft | 456 kts | 291° |
| 2026-05-07 17:15 | 27.70777 | 48.01035 | 35944 ft | 457 kts | 291° |
| 2026-05-07 17:16 | 27.73837 | 47.94751 | 35939 ft | 457 kts | 290° |
| 2026-05-07 17:16 | 27.76898 | 47.88463 | 35939 ft | 456 kts | 291° |
| 2026-05-07 17:17 | 27.79953 | 47.82181 | 35933 ft | 456 kts | 290° |
| 2026-05-07 17:17 | 27.82999 | 47.75897 | 35938 ft | 456 kts | 290° |
| 2026-05-07 17:18 | 27.85465 | 47.69452 | 35954 ft | 445 kts | 281° |
| 2026-05-07 17:18 | 27.87495 | 47.62848 | 35949 ft | 445 kts | 282° |
| 2026-05-07 17:19 | 27.89552 | 47.56245 | 35949 ft | 445 kts | 282° |
| 2026-05-07 17:19 | 27.91601 | 47.49644 | 35950 ft | 445 kts | 281° |
| 2026-05-07 17:20 | 27.93643 | 47.43038 | 35965 ft | 445 kts | 281° |
| 2026-05-07 17:20 | 27.95677 | 47.36438 | 35973 ft | 444 kts | 281° |
| 2026-05-07 17:21 | 27.97695 | 47.29883 | 35962 ft | 444 kts | 281° |
| 2026-05-07 17:21 | 27.99717 | 47.23298 | 35962 ft | 443 kts | 281° |
| 2026-05-07 17:22 | 28.01739 | 47.16715 | 35980 ft | 443 kts | 281° |
| 2026-05-07 17:22 | 28.03757 | 47.10129 | 35982 ft | 442 kts | 281° |
| 2026-05-07 17:23 | 28.05751 | 47.03594 | 35972 ft | 442 kts | 281° |
| 2026-05-07 17:23 | 28.07752 | 46.97021 | 35976 ft | 441 kts | 281° |
| 2026-05-07 17:24 | 28.09752 | 46.90452 | 35964 ft | 441 kts | 281° |
| 2026-05-07 17:24 | 28.11446 | 46.85003 | 35962 ft | 442 kts | 282° |
| 2026-05-07 17:25 | 28.13651 | 46.78490 | 35959 ft | 443 kts | 282° |
| 2026-05-07 17:25 | 28.16205 | 46.70908 | 35954 ft | 443 kts | 282° |
| 2026-05-07 17:26 | 28.18023 | 46.65445 | 35950 ft | 442 kts | 282° |
| 2026-05-07 17:26 | 28.20172 | 46.58962 | 35947 ft | 442 kts | 282° |
| 2026-05-07 17:27 | 28.22334 | 46.52442 | 35939 ft | 442 kts | 282° |
| 2026-05-07 17:27 | 28.24843 | 46.44851 | 35949 ft | 442 kts | 282° |
| 2026-05-07 17:28 | 28.26651 | 46.39377 | 35954 ft | 442 kts | 282° |
| 2026-05-07 17:28 | 28.28793 | 46.32875 | 35963 ft | 443 kts | 281° |
| 2026-05-07 17:29 | 28.30946 | 46.26322 | 35977 ft | 444 kts | 282° |
| 2026-05-07 17:29 | 28.33101 | 46.19759 | 36001 ft | 444 kts | 281° |
| 2026-05-07 17:30 | 28.35257 | 46.13179 | 35986 ft | 445 kts | 281° |
| 2026-05-07 17:30 | 28.37546 | 46.06623 | 35991 ft | 449 kts | 284° |
| 2026-05-07 17:31 | 28.40013 | 46.00155 | 35988 ft | 450 kts | 284° |
| 2026-05-07 17:31 | 28.42471 | 45.93624 | 35971 ft | 450 kts | 283° |
| 2026-05-07 17:32 | 28.44906 | 45.87074 | 35971 ft | 450 kts | 283° |
| 2026-05-07 17:32 | 28.47334 | 45.80520 | 35969 ft | 450 kts | 283° |
| 2026-05-07 17:33 | 28.49741 | 45.74013 | 35970 ft | 450 kts | 283° |
| 2026-05-07 17:33 | 28.52160 | 45.67457 | 35975 ft | 450 kts | 283° |
| 2026-05-07 17:34 | 28.54580 | 45.60887 | 35973 ft | 450 kts | 283° |
| 2026-05-07 17:34 | 28.56995 | 45.54322 | 35970 ft | 450 kts | 283° |
| 2026-05-07 17:35 | 28.59395 | 45.47789 | 35968 ft | 450 kts | 283° |
| 2026-05-07 17:35 | 28.61804 | 45.41218 | 35976 ft | 450 kts | 283° |
| 2026-05-07 17:36 | 28.64209 | 45.34644 | 35974 ft | 450 kts | 282° |
| 2026-05-07 17:36 | 28.66609 | 45.28070 | 35975 ft | 450 kts | 282° |
| 2026-05-07 17:37 | 28.69008 | 45.21496 | 35967 ft | 450 kts | 282° |
| 2026-05-07 17:37 | 28.71402 | 45.14918 | 35965 ft | 449 kts | 282° |
| 2026-05-07 17:38 | 28.73774 | 45.08383 | 35985 ft | 449 kts | 282° |
| 2026-05-07 17:38 | 28.76157 | 45.01811 | 35975 ft | 449 kts | 282° |
| 2026-05-07 17:39 | 28.78538 | 44.95235 | 35967 ft | 449 kts | 282° |
| 2026-05-07 17:39 | 28.80913 | 44.88657 | 35963 ft | 448 kts | 282° |
| 2026-05-07 17:40 | 28.83270 | 44.82125 | 35964 ft | 448 kts | 282° |
| 2026-05-07 17:40 | 28.85328 | 44.75500 | 35959 ft | 438 kts | 275° |
| 2026-05-07 17:41 | 28.86459 | 44.68768 | 35963 ft | 427 kts | 268° |
| 2026-05-07 17:41 | 28.86990 | 44.62046 | 35966 ft | 426 kts | 266° |
| 2026-05-07 17:42 | 28.87541 | 44.55315 | 35952 ft | 426 kts | 266° |
| 2026-05-07 17:42 | 28.88077 | 44.48629 | 35940 ft | 425 kts | 266° |
| 2026-05-07 17:43 | 28.88609 | 44.41913 | 35983 ft | 425 kts | 266° |
| 2026-05-07 17:43 | 28.89134 | 44.35185 | 35948 ft | 426 kts | 266° |
| 2026-05-07 17:44 | 28.89659 | 44.28453 | 35949 ft | 426 kts | 266° |
| 2026-05-07 17:44 | 28.90177 | 44.21763 | 35976 ft | 426 kts | 266° |
| 2026-05-07 17:45 | 28.90696 | 44.15011 | 35955 ft | 427 kts | 266° |
| 2026-05-07 17:45 | 28.91212 | 44.08252 | 35957 ft | 428 kts | 266° |
| 2026-05-07 17:46 | 28.91727 | 44.01492 | 35984 ft | 428 kts | 266° |
| 2026-05-07 17:46 | 28.92234 | 43.94757 | 35964 ft | 429 kts | 266° |
| 2026-05-07 17:47 | 28.92742 | 43.87976 | 35961 ft | 429 kts | 266° |
| 2026-05-07 17:47 | 28.93244 | 43.81203 | 35980 ft | 428 kts | 266° |
| 2026-05-07 17:48 | 28.93745 | 43.74419 | 35967 ft | 429 kts | 266° |
| 2026-05-07 17:48 | 28.94245 | 43.67635 | 35966 ft | 429 kts | 266° |
| 2026-05-07 17:49 | 28.94735 | 43.60895 | 35965 ft | 430 kts | 266° |
| 2026-05-07 17:49 | 28.95226 | 43.54096 | 35962 ft | 430 kts | 266° |
| 2026-05-07 17:50 | 28.95715 | 43.47280 | 35966 ft | 431 kts | 266° |
| 2026-05-07 17:50 | 28.96201 | 43.40468 | 35963 ft | 432 kts | 266° |
| 2026-05-07 17:51 | 28.96688 | 43.33636 | 35967 ft | 432 kts | 266° |
| 2026-05-07 17:51 | 28.97165 | 43.26846 | 35970 ft | 432 kts | 266° |
| 2026-05-07 17:52 | 28.97638 | 43.20007 | 35966 ft | 432 kts | 266° |
| 2026-05-07 17:52 | 28.98113 | 43.13157 | 35971 ft | 433 kts | 266° |
| 2026-05-07 17:53 | 28.98585 | 43.06289 | 35980 ft | 434 kts | 266° |
| 2026-05-07 17:53 | 28.99052 | 42.99455 | 35985 ft | 436 kts | 266° |
| 2026-05-07 17:54 | 28.99519 | 42.92552 | 35985 ft | 436 kts | 266° |
| 2026-05-07 17:54 | 28.99986 | 42.85636 | 35993 ft | 436 kts | 266° |
| 2026-05-07 17:55 | 29.00446 | 42.78725 | 35995 ft | 437 kts | 266° |
| 2026-05-07 17:55 | 29.00902 | 42.71849 | 35997 ft | 437 kts | 266° |
| 2026-05-07 17:56 | 29.01355 | 42.64927 | 36000 ft | 437 kts | 266° |
| 2026-05-07 17:56 | 29.01805 | 42.58010 | 36001 ft | 437 kts | 265° |
| 2026-05-07 17:57 | 29.02176 | 42.52250 | 35996 ft | 437 kts | 265° |
| 2026-05-07 17:57 | 29.02692 | 42.44209 | 35993 ft | 437 kts | 265° |
| 2026-05-07 17:58 | 29.03131 | 42.37286 | 35998 ft | 437 kts | 265° |
| 2026-05-07 17:58 | 29.03567 | 42.30349 | 36000 ft | 438 kts | 265° |
| 2026-05-07 17:59 | 29.04003 | 42.23409 | 36002 ft | 438 kts | 265° |
| 2026-05-07 17:59 | 29.04434 | 42.16466 | 36018 ft | 439 kts | 265° |
| 2026-05-07 18:00 | 29.04859 | 42.09564 | 36030 ft | 438 kts | 265° |
| 2026-05-07 18:00 | 29.05281 | 42.02626 | 36020 ft | 437 kts | 265° |
| 2026-05-07 18:01 | 29.05699 | 41.95697 | 36038 ft | 437 kts | 265° |
| 2026-05-07 18:01 | 29.06113 | 41.88773 | 36019 ft | 436 kts | 265° |
| 2026-05-07 18:02 | 29.06722 | 41.78461 | 36023 ft | 435 kts | 265° |
| 2026-05-07 18:03 | 29.07122 | 41.71570 | 36033 ft | 434 kts | 265° |
| 2026-05-07 18:03 | 29.07519 | 41.64682 | 36027 ft | 434 kts | 265° |
| 2026-05-07 18:04 | 29.07912 | 41.57816 | 36013 ft | 433 kts | 265° |
| 2026-05-07 18:04 | 29.08302 | 41.50950 | 36027 ft | 433 kts | 265° |
| 2026-05-07 18:05 | 29.08685 | 41.44138 | 36024 ft | 432 kts | 265° |
| 2026-05-07 18:05 | 29.09066 | 41.37288 | 36018 ft | 431 kts | 265° |
| 2026-05-07 18:06 | 29.09447 | 41.30446 | 36023 ft | 432 kts | 265° |
| 2026-05-07 18:06 | 29.09828 | 41.23600 | 36009 ft | 431 kts | 265° |
| 2026-05-07 18:07 | 29.10200 | 41.16770 | 36009 ft | 430 kts | 265° |
| 2026-05-07 18:07 | 29.10565 | 41.09978 | 36003 ft | 432 kts | 265° |
| 2026-05-07 18:08 | 29.10935 | 41.03128 | 36011 ft | 432 kts | 265° |
| 2026-05-07 18:08 | 29.11297 | 40.96284 | 35997 ft | 431 kts | 265° |
| 2026-05-07 18:09 | 29.11659 | 40.89437 | 36013 ft | 432 kts | 266° |
| 2026-05-07 18:09 | 29.12013 | 40.82609 | 35999 ft | 434 kts | 266° |
| 2026-05-07 18:10 | 29.12370 | 40.75721 | 36007 ft | 434 kts | 266° |
| 2026-05-07 18:10 | 29.12722 | 40.68824 | 36014 ft | 434 kts | 265° |
| 2026-05-07 18:11 | 29.13070 | 40.61930 | 36017 ft | 434 kts | 265° |
| 2026-05-07 18:11 | 29.13207 | 40.55109 | 36016 ft | 429 kts | 260° |
| 2026-05-07 18:12 | 29.12964 | 40.48289 | 36008 ft | 429 kts | 261° |
| 2026-05-07 18:12 | 29.12746 | 40.41460 | 36006 ft | 430 kts | 261° |
| 2026-05-07 18:13 | 29.12519 | 40.34626 | 36004 ft | 430 kts | 261° |
| 2026-05-07 18:13 | 29.12287 | 40.27787 | 36013 ft | 431 kts | 261° |
| 2026-05-07 18:14 | 29.12055 | 40.20977 | 36015 ft | 433 kts | 261° |
| 2026-05-07 18:14 | 29.11817 | 40.14101 | 36017 ft | 433 kts | 261° |
| 2026-05-07 18:15 | 29.11571 | 40.07225 | 36017 ft | 433 kts | 261° |
| 2026-05-07 18:15 | 29.11323 | 40.00337 | 36008 ft | 435 kts | 262° |
| 2026-05-07 18:16 | 29.11075 | 39.93472 | 36003 ft | 435 kts | 262° |
| 2026-05-07 18:16 | 29.10902 | 39.86552 | 36004 ft | 437 kts | 264° |
| 2026-05-07 18:17 | 29.10984 | 39.79585 | 36023 ft | 438 kts | 264° |
| 2026-05-07 18:17 | 29.11043 | 39.72597 | 35994 ft | 440 kts | 264° |
| 2026-05-07 18:18 | 29.11070 | 39.65657 | 35999 ft | 439 kts | 264° |
| 2026-05-07 18:18 | 29.11087 | 39.58662 | 36000 ft | 440 kts | 264° |
| 2026-05-07 18:19 | 29.11099 | 39.51638 | 35982 ft | 443 kts | 265° |
| 2026-05-07 18:19 | 29.11111 | 39.44582 | 35991 ft | 445 kts | 265° |
| 2026-05-07 18:20 | 29.11120 | 39.37491 | 36011 ft | 446 kts | 265° |
| 2026-05-07 18:20 | 29.11124 | 39.30427 | 35987 ft | 448 kts | 265° |
| 2026-05-07 18:21 | 29.11124 | 39.23296 | 35999 ft | 449 kts | 265° |
| 2026-05-07 18:21 | 29.11120 | 39.16145 | 36008 ft | 450 kts | 265° |
| 2026-05-07 18:22 | 29.11113 | 39.08994 | 35983 ft | 451 kts | 265° |
| 2026-05-07 18:22 | 29.11103 | 39.01816 | 35985 ft | 452 kts | 265° |
| 2026-05-07 18:23 | 29.11088 | 38.94674 | 35993 ft | 452 kts | 265° |
| 2026-05-07 18:23 | 29.11066 | 38.87482 | 35998 ft | 453 kts | 266° |
| 2026-05-07 18:24 | 29.11035 | 38.80252 | 35981 ft | 455 kts | 266° |
| 2026-05-07 18:24 | 29.10999 | 38.73009 | 35993 ft | 456 kts | 266° |
| 2026-05-07 18:25 | 29.10963 | 38.65747 | 36017 ft | 456 kts | 266° |
| 2026-05-07 18:25 | 29.10921 | 38.58541 | 35985 ft | 457 kts | 266° |
| 2026-05-07 18:26 | 29.10876 | 38.51267 | 35993 ft | 458 kts | 266° |
| 2026-05-07 18:26 | 29.10825 | 38.43987 | 35991 ft | 458 kts | 266° |
| 2026-05-07 18:27 | 29.10774 | 38.36703 | 35998 ft | 458 kts | 266° |
| 2026-05-07 18:27 | 29.10714 | 38.29464 | 35998 ft | 458 kts | 266° |
| 2026-05-07 18:28 | 29.10650 | 38.22175 | 35998 ft | 458 kts | 266° |
| 2026-05-07 18:28 | 29.10583 | 38.14877 | 35965 ft | 460 kts | 267° |
| 2026-05-07 18:29 | 29.10513 | 38.07565 | 35970 ft | 460 kts | 267° |
| 2026-05-07 18:29 | 29.10440 | 38.00236 | 35981 ft | 461 kts | 266° |
| 2026-05-07 18:30 | 29.10361 | 37.92972 | 35975 ft | 461 kts | 267° |
| 2026-05-07 18:30 | 29.10279 | 37.85632 | 35967 ft | 462 kts | 267° |
| 2026-05-07 18:31 | 29.10193 | 37.78277 | 35971 ft | 463 kts | 267° |
| 2026-05-07 18:31 | 29.10101 | 37.70922 | 35992 ft | 463 kts | 267° |
| 2026-05-07 18:32 | 29.10007 | 37.63581 | 35966 ft | 466 kts | 268° |
| 2026-05-07 18:32 | 29.09908 | 37.56149 | 35983 ft | 468 kts | 268° |
| 2026-05-07 18:33 | 29.09806 | 37.48699 | 36000 ft | 469 kts | 268° |
| 2026-05-07 18:33 | 29.09754 | 37.41227 | 36009 ft | 471 kts | 268° |
| 2026-05-07 18:34 | 29.09707 | 37.33784 | 35999 ft | 471 kts | 268° |
| 2026-05-07 18:34 | 29.09648 | 37.26295 | 36013 ft | 471 kts | 268° |
| 2026-05-07 18:35 | 29.09582 | 37.18799 | 36001 ft | 472 kts | 268° |
| 2026-05-07 18:35 | 29.09509 | 37.11298 | 36000 ft | 472 kts | 268° |
| 2026-05-07 18:36 | 29.09435 | 37.03847 | 36006 ft | 472 kts | 268° |
| 2026-05-07 18:36 | 29.09356 | 36.96341 | 36004 ft | 472 kts | 269° |
| 2026-05-07 18:37 | 29.09273 | 36.88841 | 36000 ft | 472 kts | 268° |
| 2026-05-07 18:37 | 29.09186 | 36.81337 | 35987 ft | 472 kts | 268° |
| 2026-05-07 18:38 | 29.09095 | 36.73842 | 35984 ft | 472 kts | 269° |
| 2026-05-07 18:38 | 29.09001 | 36.66390 | 35974 ft | 472 kts | 269° |
| 2026-05-07 18:39 | 29.08901 | 36.58897 | 35969 ft | 472 kts | 269° |
| 2026-05-07 18:39 | 29.08797 | 36.51394 | 35962 ft | 472 kts | 268° |
| 2026-05-07 18:40 | 29.08665 | 36.43891 | 35946 ft | 472 kts | 268° |
| 2026-05-07 18:40 | 29.08450 | 36.36450 | 35952 ft | 472 kts | 268° |
| 2026-05-07 18:41 | 29.08237 | 36.28959 | 35947 ft | 471 kts | 268° |
| 2026-05-07 18:41 | 29.08026 | 36.21473 | 35948 ft | 471 kts | 268° |
| 2026-05-07 18:42 | 29.07813 | 36.13980 | 35949 ft | 471 kts | 268° |
| 2026-05-07 18:42 | 29.07598 | 36.06489 | 35950 ft | 471 kts | 268° |
| 2026-05-07 18:43 | 29.07375 | 35.99051 | 35956 ft | 471 kts | 268° |
| 2026-05-07 18:43 | 29.07149 | 35.91559 | 35968 ft | 472 kts | 268° |
| 2026-05-07 18:44 | 29.06918 | 35.84063 | 35961 ft | 472 kts | 268° |
| 2026-05-07 18:44 | 29.06685 | 35.76572 | 35957 ft | 472 kts | 268° |
| 2026-05-07 18:45 | 29.06449 | 35.69127 | 35969 ft | 472 kts | 268° |
| 2026-05-07 18:45 | 29.06208 | 35.61631 | 35974 ft | 472 kts | 268° |
| 2026-05-07 18:46 | 29.05960 | 35.54134 | 35980 ft | 472 kts | 268° |
| 2026-05-07 18:46 | 29.05708 | 35.46635 | 35979 ft | 473 kts | 268° |
| 2026-05-07 18:47 | 29.05454 | 35.39175 | 35973 ft | 472 kts | 268° |
| 2026-05-07 18:47 | 29.05194 | 35.31669 | 35983 ft | 473 kts | 268° |
| 2026-05-07 18:48 | 29.04929 | 35.24154 | 35973 ft | 474 kts | 268° |
| 2026-05-07 18:48 | 29.04659 | 35.16630 | 35973 ft | 474 kts | 268° |
| 2026-05-07 18:49 | 29.04389 | 35.09160 | 35969 ft | 474 kts | 268° |
| 2026-05-07 18:49 | 29.04113 | 35.01637 | 35955 ft | 474 kts | 268° |
| 2026-05-07 18:50 | 29.03831 | 34.94114 | 35953 ft | 474 kts | 269° |
| 2026-05-07 18:50 | 29.03547 | 34.86654 | 35959 ft | 474 kts | 269° |
| 2026-05-07 18:51 | 29.03335 | 34.79068 | 35958 ft | 474 kts | 270° |
| 2026-05-07 18:51 | 29.03333 | 34.71602 | 35971 ft | 473 kts | 275° |
| 2026-05-07 18:52 | 29.04265 | 34.64195 | 35965 ft | 471 kts | 284° |
| 2026-05-07 18:52 | 29.06192 | 34.57049 | 35982 ft | 470 kts | 289° |
| 2026-05-07 18:53 | 29.08275 | 34.49968 | 36004 ft | 471 kts | 289° |
| 2026-05-07 18:53 | 29.10332 | 34.42919 | 36008 ft | 470 kts | 289° |
| 2026-05-07 18:54 | 29.12404 | 34.35823 | 36030 ft | 470 kts | 289° |
| 2026-05-07 18:54 | 29.14470 | 34.28735 | 36043 ft | 470 kts | 289° |
| 2026-05-07 18:55 | 29.16533 | 34.21648 | 36041 ft | 470 kts | 289° |
| 2026-05-07 18:55 | 29.18589 | 34.14563 | 36062 ft | 469 kts | 290° |
| 2026-05-07 18:56 | 29.20625 | 34.07526 | 36065 ft | 469 kts | 290° |
| 2026-05-07 18:56 | 29.22672 | 34.00448 | 36065 ft | 468 kts | 290° |
| 2026-05-07 18:57 | 29.24713 | 33.93376 | 36069 ft | 467 kts | 290° |
| 2026-05-07 18:57 | 29.26747 | 33.86310 | 36071 ft | 467 kts | 290° |
| 2026-05-07 18:58 | 29.28756 | 33.79309 | 35939 ft | 462 kts | 290° |
| 2026-05-07 18:58 | 29.29755 | 33.75830 | 35700 ft | 459 kts | 290° |
| 2026-05-07 18:58 | 29.30751 | 33.72357 | 35452 ft | 460 kts | 290° |
| 2026-05-07 18:58 | 29.31750 | 33.68868 | 35211 ft | 462 kts | 290° |
| 2026-05-07 18:59 | 29.32749 | 33.65373 | 34973 ft | 461 kts | 290° |
| 2026-05-07 18:59 | 29.33746 | 33.61880 | 34730 ft | 462 kts | 290° |
| 2026-05-07 18:59 | 29.34747 | 33.58373 | 34492 ft | 464 kts | 290° |
| 2026-05-07 18:59 | 29.35749 | 33.54859 | 34261 ft | 464 kts | 290° |
| 2026-05-07 19:00 | 29.36734 | 33.51396 | 34019 ft | 462 kts | 290° |
| 2026-05-07 19:00 | 29.37728 | 33.47900 | 33755 ft | 460 kts | 290° |
| 2026-05-07 19:00 | 29.38715 | 33.44425 | 33486 ft | 458 kts | 290° |
| 2026-05-07 19:00 | 29.39697 | 33.40962 | 33224 ft | 455 kts | 290° |
| 2026-05-07 19:01 | 29.40674 | 33.37515 | 32955 ft | 453 kts | 290° |
| 2026-05-07 19:01 | 29.41645 | 33.34079 | 32692 ft | 452 kts | 290° |
| 2026-05-07 19:01 | 29.42612 | 33.30661 | 32434 ft | 450 kts | 290° |
| 2026-05-07 19:01 | 29.43573 | 33.27259 | 32177 ft | 448 kts | 290° |
| 2026-05-07 19:02 | 29.44528 | 33.23869 | 31922 ft | 446 kts | 290° |
| 2026-05-07 19:02 | 29.45466 | 33.20540 | 31676 ft | 443 kts | 290° |
| 2026-05-07 19:02 | 29.46411 | 33.17184 | 31430 ft | 442 kts | 290° |
| 2026-05-07 19:02 | 29.47352 | 33.13836 | 31165 ft | 439 kts | 291° |
| 2026-05-07 19:03 | 29.48284 | 33.10520 | 30917 ft | 435 kts | 291° |
| 2026-05-07 19:03 | 29.49211 | 33.07224 | 30690 ft | 433 kts | 291° |
| 2026-05-07 19:03 | 29.50134 | 33.03934 | 30448 ft | 432 kts | 291° |
| 2026-05-07 19:03 | 29.51049 | 33.00661 | 30203 ft | 430 kts | 290° |
| 2026-05-07 19:04 | 29.51961 | 32.97399 | 29938 ft | 429 kts | 290° |
| 2026-05-07 19:04 | 29.52870 | 32.94147 | 29656 ft | 427 kts | 290° |
| 2026-05-07 19:04 | 29.53775 | 32.90905 | 29359 ft | 425 kts | 290° |
| 2026-05-07 19:04 | 29.54678 | 32.87673 | 28783 ft | 424 kts | 291° |
| 2026-05-07 19:05 | 29.55561 | 32.84503 | 28212 ft | 420 kts | 290° |
| 2026-05-07 19:05 | 29.56443 | 32.81324 | 27641 ft | 415 kts | 290° |
| 2026-05-07 19:05 | 29.57316 | 32.78182 | 27071 ft | 411 kts | 290° |
| 2026-05-07 19:05 | 29.58179 | 32.75076 | 26507 ft | 406 kts | 290° |
| 2026-05-07 19:06 | 29.59035 | 32.71993 | 25946 ft | 403 kts | 290° |
| 2026-05-07 19:06 | 29.60595 | 32.65881 | 24829 ft | 397 kts | 286° |
| 2026-05-07 19:06 | 29.61283 | 32.62815 | 24307 ft | 394 kts | 287° |
| 2026-05-07 19:07 | 29.61967 | 32.59820 | 24031 ft | 384 kts | 287° |
| 2026-05-07 19:07 | 29.62635 | 32.56897 | 23796 ft | 371 kts | 287° |
| 2026-05-07 19:07 | 29.63263 | 32.54141 | 23660 ft | 352 kts | 286° |
| 2026-05-07 19:07 | 29.63867 | 32.51469 | 23510 ft | 341 kts | 287° |
| 2026-05-07 19:08 | 29.64464 | 32.48842 | 23052 ft | 340 kts | 287° |
| 2026-05-07 19:08 | 29.65059 | 32.46219 | 22612 ft | 339 kts | 287° |
| 2026-05-07 19:08 | 29.65652 | 32.43606 | 22194 ft | 337 kts | 287° |
| 2026-05-07 19:08 | 29.66240 | 32.41003 | 21780 ft | 335 kts | 287° |
| 2026-05-07 19:09 | 29.66824 | 32.38412 | 21369 ft | 334 kts | 287° |
| 2026-05-07 19:09 | 29.67405 | 32.35832 | 20970 ft | 333 kts | 287° |
| 2026-05-07 19:09 | 29.67982 | 32.33261 | 20585 ft | 331 kts | 287° |
| 2026-05-07 19:09 | 29.68548 | 32.30743 | 20207 ft | 329 kts | 287° |
| 2026-05-07 19:10 | 29.69119 | 32.28200 | 19813 ft | 328 kts | 287° |
| 2026-05-07 19:10 | 29.69687 | 32.25666 | 19411 ft | 327 kts | 287° |
| 2026-05-07 19:10 | 29.70256 | 32.23136 | 19042 ft | 326 kts | 287° |
| 2026-05-07 19:10 | 29.70826 | 32.20595 | 18390 ft | 333 kts | 287° |
| 2026-05-07 19:11 | 29.71415 | 32.17972 | 17478 ft | 345 kts | 287° |
| 2026-05-07 19:11 | 29.72024 | 32.15252 | 16503 ft | 356 kts | 286° |
| 2026-05-07 19:11 | 29.72650 | 32.12451 | 15487 ft | 367 kts | 286° |
| 2026-05-07 19:11 | 29.73295 | 32.09563 | 14442 ft | 378 kts | 286° |
| 2026-05-07 19:12 | 29.73936 | 32.06668 | 13697 ft | 378 kts | 286° |
| 2026-05-07 19:12 | 29.74581 | 32.03765 | 13052 ft | 372 kts | 286° |
| 2026-05-07 19:12 | 29.75218 | 32.00898 | 12368 ft | 368 kts | 286° |
| 2026-05-07 19:12 | 29.75847 | 31.98061 | 11750 ft | 363 kts | 286° |
| 2026-05-07 19:13 | 29.76468 | 31.95263 | 11095 ft | 359 kts | 286° |
| 2026-05-07 19:13 | 29.77083 | 31.92478 | 10531 ft | 354 kts | 286° |
| 2026-05-07 19:13 | 29.77672 | 31.89804 | 10269 ft | 335 kts | 286° |
| 2026-05-07 19:13 | 29.78228 | 31.87294 | 10080 ft | 313 kts | 288° |
| 2026-05-07 19:14 | 29.78920 | 31.85005 | 9916 ft | 293 kts | 293° |
| 2026-05-07 19:14 | 29.79647 | 31.82886 | 9811 ft | 279 kts | 293° |
| 2026-05-07 19:14 | 29.80336 | 31.80837 | 9693 ft | 279 kts | 293° |
| 2026-05-07 19:14 | 29.81034 | 31.78746 | 9376 ft | 279 kts | 293° |
| 2026-05-07 19:15 | 29.81728 | 31.76663 | 9078 ft | 277 kts | 293° |
| 2026-05-07 19:15 | 29.82402 | 31.74625 | 8783 ft | 269 kts | 293° |
| 2026-05-07 19:15 | 29.83052 | 31.72661 | 8647 ft | 256 kts | 293° |
| 2026-05-07 19:15 | 29.83671 | 31.70795 | 8539 ft | 243 kts | 293° |
| 2026-05-07 19:16 | 29.84258 | 31.69022 | 8373 ft | 233 kts | 293° |
| 2026-05-07 19:16 | 29.84824 | 31.67318 | 7921 ft | 219 kts | 293° |
| 2026-05-07 19:16 | 29.85353 | 31.65721 | 7290 ft | 218 kts | 294° |
| 2026-05-07 19:16 | 29.85909 | 31.64051 | 7050 ft | 226 kts | 294° |
| 2026-05-07 19:17 | 29.86452 | 31.62410 | 6899 ft | 214 kts | 296° |
| 2026-05-07 19:17 | 29.86985 | 31.60804 | 6700 ft | 213 kts | 296° |
| 2026-05-07 19:17 | 29.87491 | 31.59272 | 6544 ft | 195 kts | 296° |
| 2026-05-07 19:17 | 29.87966 | 31.57827 | 6106 ft | 194 kts | 294° |
| 2026-05-07 19:18 | 29.88435 | 31.56387 | 5942 ft | 190 kts | 297° |
| 2026-05-07 19:18 | 29.88914 | 31.54957 | 5787 ft | 193 kts | 297° |
| 2026-05-07 19:18 | 29.89396 | 31.53518 | 5616 ft | 193 kts | 297° |
| 2026-05-07 19:18 | 29.89874 | 31.52075 | 5371 ft | 192 kts | 297° |
| 2026-05-07 19:19 | 29.90345 | 31.50648 | 5177 ft | 191 kts | 296° |
| 2026-05-07 19:19 | 29.90809 | 31.49243 | 4941 ft | 189 kts | 296° |
| 2026-05-07 19:19 | 29.91277 | 31.47824 | 4709 ft | 189 kts | 296° |
| 2026-05-07 19:19 | 29.91747 | 31.46400 | 4504 ft | 191 kts | 296° |
| 2026-05-07 19:20 | 29.92223 | 31.44973 | 4279 ft | 191 kts | 297° |
| 2026-05-07 19:20 | 29.92696 | 31.43543 | 4044 ft | 191 kts | 296° |
| 2026-05-07 19:20 | 29.93167 | 31.42105 | 3817 ft | 192 kts | 296° |
| 2026-05-07 19:20 | 29.93637 | 31.40662 | 3567 ft | 192 kts | 296° |
| 2026-05-07 19:21 | 29.94108 | 31.39223 | 3362 ft | 192 kts | 296° |
| 2026-05-07 19:21 | 29.94581 | 31.37785 | 3118 ft | 192 kts | 296° |
| 2026-05-07 19:21 | 29.95063 | 31.36341 | 2882 ft | 195 kts | 296° |
| 2026-05-07 19:21 | 29.95554 | 31.34869 | 2645 ft | 198 kts | 296° |
| 2026-05-07 19:22 | 29.96023 | 31.33421 | 2529 ft | 193 kts | 297° |
| 2026-05-07 19:22 | 29.96491 | 31.31959 | 2541 ft | 195 kts | 297° |
| 2026-05-07 19:22 | 29.96976 | 31.30498 | 2547 ft | 194 kts | 297° |
| 2026-05-07 19:22 | 29.97603 | 31.29163 | 2534 ft | 184 kts | 324° |
| 2026-05-07 19:23 | 29.98719 | 31.28726 | 2578 ft | 168 kts | 9° |
| 2026-05-07 19:23 | 29.99794 | 31.29160 | 2585 ft | 163 kts | 32° |
| 2026-05-07 19:23 | 30.00683 | 31.29970 | 2589 ft | 164 kts | 43° |
| 2026-05-07 19:23 | 30.01484 | 31.30937 | 2615 ft | 168 kts | 48° |
| 2026-05-07 19:24 | 30.02244 | 31.31943 | 2584 ft | 164 kts | 48° |
| 2026-05-07 19:24 | 30.02944 | 31.32877 | 2481 ft | 142 kts | 47° |
| 2026-05-07 19:24 | 30.03547 | 31.33682 | 2316 ft | 127 kts | 47° |
| 2026-05-07 19:24 | 30.04112 | 31.34435 | 2151 ft | 121 kts | 49° |
| 2026-05-07 19:25 | 30.04653 | 31.35160 | 2001 ft | 118 kts | 48° |
| 2026-05-07 19:25 | 30.05197 | 31.35878 | 1847 ft | 120 kts | 49° |
| 2026-05-07 19:25 | 30.05743 | 31.36611 | 1685 ft | 121 kts | 47° |
| 2026-05-07 19:25 | 30.06298 | 31.37345 | 1516 ft | 122 kts | 47° |
| 2026-05-07 19:26 | 30.06846 | 31.38081 | 1358 ft | 123 kts | 47° |
| 2026-05-07 19:26 | 30.07402 | 31.38821 | 1153 ft | 119 kts | 46° |
| 2026-05-07 19:26 | 30.07945 | 31.39543 | 993 ft | 119 kts | 47° |
| 2026-05-07 19:26 | 30.08493 | 31.40271 | 831 ft | 121 kts | 46° |
| 2026-05-07 19:27 | 30.09049 | 31.41011 | 694 ft | 123 kts | 46° |
| 2026-05-07 19:27 | 30.09604 | 31.41744 | 543 ft | 120 kts | 48° |
| 2026-05-07 19:27 | 30.10137 | 31.42465 | 462 ft | 108 kts | 49° |
| 2026-05-07 19:27 | 30.10534 | 31.42994 | 465 ft | 69 kts | 49° |
| 2026-05-07 19:28 | 30.10779 | 31.43319 | 466 ft | 39 kts | 48° |
| 2026-05-07 19:28 | 30.10953 | 31.43493 | 464 ft | 30 kts | 31° |
| 2026-05-07 19:28 | 30.11108 | 31.43578 | 462 ft | 16 kts | 24° |
| 2026-05-07 19:28 | 30.11178 | 31.43605 | 459 ft | 0 kts | 333° |
| 2026-05-07 19:29 | 30.11200 | 31.43592 | 458 ft | 8 kts | 330° |
| 2026-05-07 19:29 | 30.11244 | 31.43538 | 454 ft | 11 kts | 285° |
| 2026-05-07 19:29 | 30.11246 | 31.43529 | 453 ft | 3 kts | 277° |
| 2026-05-07 19:29 | 30.11241 | 31.43485 | 452 ft | 9 kts | 266° |
| 2026-05-07 19:30 | 30.11268 | 31.43406 | 448 ft | 14 kts | 312° |
| 2026-05-07 19:30 | 30.11351 | 31.43318 | 426 ft | 19 kts | 319° |
| 2026-05-07 19:30 | 30.11421 | 31.43248 | 428 ft | 22 kts | 320° |
| 2026-05-07 19:30 | 30.11550 | 31.43122 | 419 ft | 19 kts | 320° |
| 2026-05-07 19:31 | 30.11652 | 31.43021 | 412 ft | 21 kts | 319° |
| 2026-05-07 19:31 | 30.11763 | 31.42909 | 407 ft | 22 kts | 320° |
| 2026-05-07 19:31 | 30.11873 | 31.42800 | 394 ft | 19 kts | 319° |
| 2026-05-07 19:31 | 30.11986 | 31.42687 | 389 ft | 23 kts | 319° |
| 2026-05-07 19:32 | 30.12043 | 31.42630 | 387 ft | 14 kts | 320° |
| 2026-05-07 19:32 | 30.12124 | 31.42551 | 384 ft | 14 kts | 319° |
| 2026-05-07 19:32 | 30.12192 | 31.42475 | 378 ft | 14 kts | 301° |
| 2026-05-07 19:32 | 30.12180 | 31.42371 | 372 ft | 13 kts | 227° |
| 2026-05-07 19:33 | 30.12112 | 31.42280 | 378 ft | 18 kts | 229° |
| 2026-05-07 19:33 | 30.12017 | 31.42154 | 379 ft | 24 kts | 229° |
| 2026-05-07 19:33 | 30.11898 | 31.41996 | 379 ft | 28 kts | 229° |
| 2026-05-07 19:33 | 30.11761 | 31.41813 | 375 ft | 32 kts | 229° |
| 2026-05-07 19:34 | 30.11615 | 31.41618 | 380 ft | 28 kts | 229° |
| 2026-05-07 19:34 | 30.11508 | 31.41475 | 376 ft | 24 kts | 229° |
| 2026-05-07 19:34 | 30.11387 | 31.41312 | 378 ft | 29 kts | 229° |
| 2026-05-07 19:34 | 30.11246 | 31.41128 | 377 ft | 32 kts | 229° |
| 2026-05-07 19:35 | 30.11117 | 31.40954 | 379 ft | 23 kts | 229° |
| 2026-05-07 19:35 | 30.11063 | 31.40842 | 376 ft | 14 kts | 291° |
| 2026-05-07 19:35 | 30.11085 | 31.40765 | 370 ft | 10 kts | 257° |
| 2026-05-07 19:35 | 30.11038 | 31.40689 | 374 ft | 15 kts | 228° |
| 2026-05-07 19:36 | 30.10957 | 31.40583 | 376 ft | 19 kts | 228° |
| 2026-05-07 19:36 | 30.10918 | 31.40477 | 369 ft | 15 kts | 280° |
| 2026-05-07 19:36 | 30.10929 | 31.40432 | 371 ft | 5 kts | 288° |
| 2026-05-07 19:36 | 30.10948 | 31.40360 | 365 ft | 13 kts | 288° |
| 2026-05-07 19:37 | 30.10985 | 31.40296 | 366 ft | 5 kts | 345° |
| 2026-05-07 19:37 | 30.11024 | 31.40302 | 358 ft | 6 kts | 18° |
| 2026-05-07 19:37 | 30.11041 | 31.40309 | 365 ft | 3 kts | 17° |
| 2026-05-07 19:37 | 30.11049 | 31.40311 | 357 ft | 0 kts | 17° |
| 2026-05-07 19:38 | 30.11050 | 31.40311 | 357 ft | 0 kts | 16° |
| 2026-05-07 19:38 | 30.11007 | 31.40296 | 358 ft | 386 kts | 16° |
| 2026-05-07 19:39 | 30.10998 | 31.40293 | 367 ft | 5 kts | 18° |
| 2026-05-07 19:39 | 30.11029 | 31.40304 | 358 ft | 3 kts | 17° |
| 2026-05-07 19:39 | 30.11045 | 31.40310 | 357 ft | 2 kts | 17° |
| 2026-05-07 19:39 | 30.11048 | 31.40311 | 357 ft | 0 kts | 17° |